Flight Track Log - Related Links

Times and Time Zones

All times are in EDT time to prevent confusion due to time zone crossing. See the EJA658 flight status page for this flight to view local times or setup timezone preferences in your user account.

Time Position Orientation Groundspeed Altitude Reporting Facility
EDT Latitude Longitude Course Direction KTS MPH feet Rate Location/Type
Tue 10:28:21 AM 35.8819 -78.7786 12° North 190 219 1,800  Level Washington Center
Tue 10:28:58 AM 35.9156 -78.7697 12° North 216 249 3,900 3,750 Climbing Washington Center
Tue 10:29:33 AM 35.9619 -78.7586 11° North 247 284 6,300 3,979 Climbing Washington Center
Tue 10:30:33 AM 36.0292 -78.7356 16° North 280 322 10,200 3,600 Climbing Washington Center
Tue 10:31:33 AM 36.1094 -78.7056 17° North 287 330 13,500 3,400 Climbing Washington Center
Tue 10:32:33 AM 36.1831 -78.6775 17° North 293 337 17,000 3,250 Climbing Washington Center
Tue 10:33:33 AM 36.2800 -78.6453 15° North 308 354 20,000 2,950 Climbing Washington Center
Tue 10:34:33 AM 36.3683 -78.6100 18° North 317 365 22,900 1,500 Climbing Washington Center
Tue 10:35:33 AM 36.4717 -78.5728 16° North 348 400 23,000 950 Climbing Washington Center
Tue 10:36:33 AM 36.5728 -78.5353 17° North 371 427 24,800 1,900 Climbing Washington Center
Tue 10:37:33 AM 36.6758 -78.5028 14° North 371 427 26,800 1,100 Climbing Washington Center
Tue 10:38:33 AM 36.7708 -78.4544 22° Northeast 384 442 27,000 950 Climbing Washington Center
Tue 10:39:33 AM 36.8708 -78.3725 33° Northeast 400 460 28,700 1,000 Climbing Washington Center
Tue 10:40:33 AM 36.9769 -78.2853 33° Northeast 410 472 29,000 150 Climbing Washington Center
Tue 10:41:33 AM 37.0683 -78.2106 33° Northeast 422 486 29,000  Level Washington Center
Tue 10:42:33 AM 37.1639 -78.1331 33° Northeast 428 493 29,000  Level Washington Center
Tue 10:43:33 AM 37.2636 -78.0500 34° Northeast 428 493 29,000  Level Washington Center
Tue 10:44:33 AM 37.3633 -77.9672 33° Northeast 428 493 29,000  Level Washington Center
Tue 10:45:33 AM 37.4631 -77.8839 34° Northeast 428 493 29,000  Level Washington Center
Tue 10:46:33 AM 37.5628 -77.7978 34° Northeast 428 493 29,000  Level Washington Center
Tue 10:47:33 AM 37.6603 -77.7114 35° Northeast 428 493 29,000  Level Washington Center
Tue 10:48:33 AM 37.7578 -77.6222 36° Northeast 433 498 29,000  Level Washington Center
Tue 10:49:33 AM 37.8572 -77.5303 36° Northeast 433 498 29,000 -500 Level Washington Center
Tue 10:50:33 AM 37.9506 -77.4403 37° Northeast 433 498 28,000 -1,200 Descending Washington Center
Tue 10:51:33 AM 38.0456 -77.3611 33° Northeast 419 482 26,600 -1,450 Descending Washington Center
Tue 10:52:33 AM 38.1364 -77.2786 36° Northeast 408 470 25,100 -1,300 Descending Washington Center
Tue 10:53:33 AM 38.2314 -77.1908 36° Northeast 396 456 24,000 -550 Descending Washington Center
Tue 10:54:33 AM 38.3181 -77.1108 36° Northeast 386 444 24,000  Level Washington Center
Tue 10:55:33 AM 38.4003 -77.0303 38° Northeast 380 437 24,000  Level Washington Center
Tue 10:56:33 AM 38.4886 -76.9497 36° Northeast 380 437 24,000  Level Washington Center
Tue 10:57:33 AM 38.5814 -76.8611 37° Northeast 394 453 24,000  Level Washington Center
Tue 10:58:33 AM 38.6719 -76.7722 37° Northeast 399 459 24,000 -350 Level Washington Center
Tue 10:59:33 AM 38.7253 -76.6453 62° Northeast 390 449 23,300 -1,100 Descending Washington Center
Tue 11:00:33 AM 38.7536 -76.5019 76° East 390 449 21,800 -1,750 Descending Washington Center
Tue 11:01:33 AM 38.7817 -76.3667 75° East 403 464 19,800 -1,900 Descending Washington Center
Tue 11:02:33 AM 38.8075 -76.2336 76° East 392 451 18,000 -1,800 Descending Washington Center
Tue 11:03:33 AM 38.8372 -76.1192 72° East 385 443 16,200 -1,550 Descending Washington Center
Tue 11:04:33 AM 38.8606 -76.0022 76° East 362 417 14,900 -650 Descending Washington Center
Tue 11:05:33 AM 38.8858 -75.8822 75° East 344 396 14,900  Level Washington Center
Tue 11:06:33 AM 38.9444 -75.7864 52° Northeast 328 377 14,900 72 Level Washington Center
Tue 11:08:19 AM 39.1006 -75.6750 29° Northeast 344 396 15,100 82 Climbing FAA TRACON SMA TRACON (SMA)
Tue 11:08:59 AM 39.1617 -75.6667 North 363 418 15,100  Level FAA TRACON SMA TRACON (SMA)
Tue 11:09:19 AM 39.2008 -75.6633 North 363 418 15,100 -300 Level FAA TRACON SMA TRACON (SMA)
Tue 11:09:39 AM 39.2272 -75.6608 North 360 414 14,900 -1,800 Descending FAA TRACON SMA TRACON (SMA)
Tue 11:09:59 AM 39.2600 -75.6567 North 342 394 13,900 -3,366 Descending FAA TRACON SMA TRACON (SMA)
Tue 11:10:20 AM 39.2922 -75.6433 18° North 320 368 12,600 -2,634 Descending FAA TRACON SMA TRACON (SMA)
Tue 11:10:40 AM 39.3175 -75.6247 30° Northeast 323 372 12,100 -750 Descending FAA TRACON SMA TRACON (SMA)
Tue 11:11:00 AM 39.3403 -75.6047 34° Northeast 325 374 12,100  Level FAA TRACON SMA TRACON (SMA)
Tue 11:11:20 AM 39.3697 -75.5794 34° Northeast 327 376 12,100  Level FAA TRACON SMA TRACON (SMA)
Tue 11:11:39 AM 39.3908 -75.5617 33° Northeast 330 380 12,100  Level FAA TRACON SMA TRACON (SMA)
Tue 11:11:59 AM 39.4139 -75.5344 42° Northeast 352 405 12,100  Level FAA TRACON SMA TRACON (SMA)
Tue 11:12:19 AM 39.4375 -75.4972 51° Northeast 348 400 12,100 -150 Level FAA TRACON SMA TRACON (SMA)
Tue 11:12:39 AM 39.4556 -75.4697 50° Northeast 343 395 12,000  Descending FAA TRACON SMA TRACON (SMA)
Tue 11:12:59 AM 39.4747 -75.4375 52° Northeast 343 395 12,100 150 Climbing FAA TRACON SMA TRACON (SMA)
Tue 11:13:19 AM 39.5022 -75.4058 42° Northeast 345 397 12,100  Level FAA TRACON SMA TRACON (SMA)
Tue 11:13:39 AM 39.5233 -75.3819 41° Northeast 345 397 12,100  Level FAA TRACON SMA TRACON (SMA)
Tue 11:13:59 AM 39.5464 -75.3558 41° Northeast 345 397 12,100  Level FAA TRACON SMA TRACON (SMA)
Tue 11:14:19 AM 39.5747 -75.3247 40° Northeast 346 398 12,100 -150 Level FAA TRACON SMA TRACON (SMA)
Tue 11:14:39 AM 39.5967 -75.3006 40° Northeast 344 396 12,000 -837 Descending FAA TRACON SMA TRACON (SMA)
Tue 11:15:02 AM 39.6242 -75.2697 41° Northeast 338 389 11,500 -1,256 Descending FAA TRACON SMA TRACON (SMA)
Tue 11:15:22 AM 39.6453 -75.2464 40° Northeast 336 387 11,100 -1,297 Descending FAA TRACON SMA TRACON (SMA)
Tue 11:15:39 AM 39.6661 -75.2231 41° Northeast 335 386 10,700 -1,297 Descending FAA TRACON SMA TRACON (SMA)
Tue 11:15:59 AM 39.6897 -75.1981 39° Northeast 334 384 10,300 -900 Descending FAA TRACON SMA TRACON (SMA)
Tue 11:16:19 AM 39.7153 -75.1664 44° Northeast 334 384 10,100 -300 Descending FAA TRACON SMA TRACON (SMA)
Tue 11:16:39 AM 39.7336 -75.1381 50° Northeast 328 377 10,100  Level FAA TRACON SMA TRACON (SMA)
Tue 11:16:59 AM 39.7519 -75.1100 50° Northeast 333 383 10,100  Level FAA TRACON SMA TRACON (SMA)
Tue 11:17:19 AM 39.7739 -75.0764 50° Northeast 310 357 10,100 -450 Level FAA TRACON SMA TRACON (SMA)
Tue 11:17:39 AM 39.7894 -75.0522 50° Northeast 283 326 9,800 -1,350 Descending FAA TRACON SMA TRACON (SMA)
Tue 11:17:59 AM 39.8047 -75.0292 49° Northeast 280 322 9,200 -2,100 Descending FAA TRACON SMA TRACON (SMA)
Tue 11:18:19 AM 39.8244 -74.9989 50° Northeast 283 326 8,400 -2,100 Descending FAA TRACON SMA TRACON (SMA)
Tue 11:18:39 AM 39.8400 -74.9769 47° Northeast 280 322 7,800 -2,250 Descending FAA TRACON SMA TRACON (SMA)
Tue 11:18:59 AM 39.8592 -74.9483 49° Northeast 274 315 6,900 -2,195 Descending FAA TRACON SMA TRACON (SMA)
Tue 11:19:20 AM 39.8736 -74.9256 50° Northeast 264 304 6,300 -1,756 Descending FAA TRACON SMA TRACON (SMA)
Tue 11:19:40 AM 39.8872 -74.9039 51° Northeast 254 292 5,700 -2,100 Descending FAA TRACON SMA TRACON (SMA)
Tue 11:20:00 AM 39.9114 -74.8936 18° North 254 292 4,900 -2,100 Descending FAA TRACON SMA TRACON (SMA)
Tue 11:20:20 AM 39.9297 -74.9031 338° Northwest 245 282 4,300 -1,231 Descending FAA TRACON SMA TRACON (SMA)
Tue 11:20:39 AM 39.9481 -74.9136 336° Northwest 207 238 4,100 -462 Descending FAA TRACON SMA TRACON (SMA)
Tue 11:20:59 AM 39.9697 -74.9267 335° Northwest 217 250 4,000 -150 Descending FAA TRACON SMA TRACON (SMA)
Tue 11:21:19 AM 39.9856 -74.9369 334° Northwest 214 246 4,000  Level FAA TRACON SMA TRACON (SMA)
Tue 11:21:39 AM 40.0022 -74.9469 335° Northwest 212 244 4,000  Level FAA TRACON SMA TRACON (SMA)
Tue 11:22:00 AM 40.0231 -74.9614 332° Northwest 213 245 4,000 -439 Level FAA TRACON SMA TRACON (SMA)
Tue 11:22:20 AM 40.0369 -74.9692 337° Northwest 213 245 3,700 -900 Descending FAA TRACON SMA TRACON (SMA)
Tue 11:22:40 AM 40.0561 -74.9806 336° Northwest 216 249 3,400 -900 Descending FAA TRACON SMA TRACON (SMA)
Tue 11:23:00 AM 40.0778 -74.9936 335° Northwest 219 252 3,100 -615 Descending FAA TRACON SMA TRACON (SMA)
Tue 11:23:19 AM 40.0936 -75.0028 336° Northwest 216 249 3,000 -154 Descending FAA TRACON SMA TRACON (SMA)
Tue 11:23:39 AM 40.1097 -75.0103 340° North 210 242 3,000 150 Level FAA TRACON SMA TRACON (SMA)
Tue 11:23:59 AM 40.1297 -75.0006 20° North 185 213 3,100  Climbing FAA TRACON SMA TRACON (SMA)
Tue 11:24:19 AM 40.1422 -74.9917 29° Northeast 190 219 3,000 -150 Descending FAA TRACON SMA TRACON (SMA)
Tue 11:24:39 AM 40.1558 -74.9767 40° Northeast 188 216 3,000 450 Level FAA TRACON SMA TRACON (SMA)
Tue 11:24:59 AM 40.1706 -74.9589 43° Northeast 186 214 3,300 -150 Climbing FAA TRACON SMA TRACON (SMA)
Tue 11:25:19 AM 40.1792 -74.9475 45° Northeast 177 204 2,900 -1,050 Descending FAA TRACON SMA TRACON (SMA)
Tue 11:25:39 AM 40.1903 -74.9336 44° Northeast 165 190 2,600 -900 Descending FAA TRACON SMA TRACON (SMA)
Tue 11:25:59 AM 40.2000 -74.9172 52° Northeast 155 178 2,300 -750 Descending FAA TRACON SMA TRACON (SMA)
Tue 11:26:19 AM 40.2067 -74.9072 49° Northeast 133 153 2,100 -600 Descending FAA TRACON SMA TRACON (SMA)
Tue 11:26:39 AM 40.2144 -74.8975 44° Northeast 127 146 1,900 -600 Descending FAA TRACON SMA TRACON (SMA)
Tue 11:26:59 AM 40.2231 -74.8872 42° Northeast 116 133 1,700 -732 Descending FAA TRACON SMA TRACON (SMA)
Tue 11:27:20 AM 40.2294 -74.8794 43° Northeast 116 133 1,400 -857 Descending FAA TRACON SMA TRACON (SMA)

Login

Don't have an account? Register now (free) for customized features, flight alerts, and more!